Airfield :
LOGIN :

Register | Disclaimer

   EN    FR    IT 

 










Legend :    VFR   Marginal VFR   IFR   Intensive IFR   Very Intensive IFR
Visi :
Ceiling :
>= 8 km
>= 3000ft
5 to 8 km
1000 to 3000 ft
1500m to 5 km
500 to 1000 ft
800 to 1500m
200 to 500 ft
< 800m
< 200 ft
Symbols :   Thunderstorms  Fog  Heavy snow  Heavy precipitations  Wind > 20 kt
SIGMETs :     Misc.  Thunderstorms  Icing  Turbulence  Mountain Waves  Volcanic Ashes







- Airport Elevation : 187 ft


ETNW - Wunstorf AB

CURRENT METAR :
  • 211020Z 26003KT 4500 BR BKN004 BKN007 02/01 Q1013 YLO

EXPIRED METARs :
  • 210920Z 25005KT 3900 BR SCT004 BKN007 01/01 Q1012 GRN
  • 210843Z 28004KT 3900 -SN BR SCT004 BKN007 01/01 Q1012 GRN
  • 210820Z 29004KT 3500 -DZ BR BKN004 BKN007 01/01 Q1012 YLO

TAF TAF ETNW
Valid from the 21 at 06:00 until the 22 at 06:00 UTC


210520Z 2106/2206 22006KT 9999 NSW SCT015 BKN040
TEMPO 2106/2111 28005KT 3000 -SN BKN005 BKN010
PROB30 2106/2109 VRB02KT 0500 FZFG BKN001 CANCEL BY ETGL
No reported NOTAMs for that airfield.



MET'MAP, your aeronautical weather chart ! - Copyright ORBIFLY December 2007 - Disclaimer

ORBIFLY MET'MAP TEAM :

Programming & Development : Alexandra Zaïnal
Concept & Development : Baudouin d'Aumeries
Co-Development & Prog : Marc-Olivier Méhu
Technical & hardware support : Manuel Goepfert

Contact : metmap@orbifly.com




SOURCES & CREDITS :

   NOAA